Time;durP1;ratioP1;P1;durP2;ratioP2;P2;SDS_P1;SDS_P2;PMS_P1;PMS_P2;Temp;Humidity;BMP_temperature;BMP_pressure;BME280_temperature;BME280_humidity;BME280_pressure;Samples;Min_cycle;Max_cycle;Signal;HPM_P1;HPM_P2
2021/09/25 00:00:06;;;;;;;1.87;1.15;;;24.80;99.90;;;;;;1833243;76;21204;-92
2021/09/25 00:02:43;;;;;;;3.67;1.45;;;24.70;99.90;;;;;;1847276;76;21063;-92
2021/09/25 00:05:16;;;;;;;2.22;1.00;;;24.80;99.90;;;;;;1840405;77;21409;-93
2021/09/25 00:07:53;;;;;;;2.80;1.35;;;24.70;99.90;;;;;;1819070;78;21166;-91
2021/09/25 00:10:31;;;;;;;3.33;2.05;;;24.80;99.90;;;;;;1829838;78;21183;-91
2021/09/25 00:12:55;;;;;;;1.95;1.30;;;24.70;99.90;;;;;;1796062;79;21076;-92
2021/09/25 00:15:36;;;;;;;2.90;0.90;;;24.70;99.90;;;;;;1826945;77;21238;-92
2021/09/25 00:18:07;;;;;;;2.92;1.10;;;24.70;99.90;;;;;;1848367;77;21123;-92
2021/09/25 00:20:39;;;;;;;2.22;1.15;;;24.70;99.90;;;;;;1776142;80;21154;-92
2021/09/25 00:23:15;;;;;;;3.30;1.05;;;24.70;99.90;;;;;;1856144;77;21210;-92
2021/09/25 00:25:59;;;;;;;2.02;1.27;;;24.70;99.90;;;;;;1817137;78;21645;-92
2021/09/25 00:31:53;;;;;;;2.92;1.50;;;24.80;99.90;;;;;;1833534;77;21090;-94
2021/09/25 00:34:43;;;;;;;3.20;1.20;;;24.80;99.90;;;;;;1799991;77;21244;-93
2021/09/25 00:40:41;;;;;;;3.02;1.00;;;24.80;99.90;;;;;;1824199;76;21226;-92
2021/09/25 00:43:15;;;;;;;2.95;1.20;;;24.80;99.90;;;;;;1757394;81;21214;-94
2021/09/25 00:45:50;;;;;;;1.30;0.82;;;24.80;99.90;;;;;;1824177;77;21157;-94
2021/09/25 00:48:24;;;;;;;1.62;1.10;;;24.80;99.90;;;;;;1830459;78;21202;-92
2021/09/25 00:54:30;;;;;;;2.02;1.10;;;24.80;99.90;;;;;;1805032;78;21151;-94
2021/09/25 00:57:08;;;;;;;3.52;1.47;;;24.80;99.90;;;;;;1784018;79;21155;-92
2021/09/25 01:09:09;;;;;;;2.45;1.20;;;24.90;99.90;;;;;;1799349;73;21215;-93
2021/09/25 01:11:42;;;;;;;2.37;1.22;;;25.00;99.90;;;;;;1775886;76;21556;-93
2021/09/25 01:14:13;;;;;;;3.33;1.90;;;25.00;99.90;;;;;;1859088;76;21283;-91
2021/09/25 01:16:46;;;;;;;5.00;1.80;;;25.00;99.90;;;;;;1838826;76;21253;-91
2021/09/25 01:19:17;;;;;;;1.98;1.40;;;25.10;99.90;;;;;;1784484;76;21127;-93
2021/09/25 01:21:49;;;;;;;2.50;1.77;;;25.10;99.90;;;;;;1751208;77;21186;-93
2021/09/25 01:24:21;;;;;;;3.87;1.80;;;25.10;99.90;;;;;;1770217;80;21138;-92
2021/09/25 01:37:06;;;;;;;2.85;1.30;;;25.20;99.90;;;;;;1817507;79;21162;-92
2021/09/25 01:39:37;;;;;;;2.10;1.40;;;25.20;99.90;;;;;;1831910;77;21155;-78
2021/09/25 01:42:08;;;;;;;2.50;1.30;;;25.20;99.90;;;;;;1833271;77;21158;-77
2021/09/25 01:44:39;;;;;;;2.02;1.25;;;25.20;99.90;;;;;;1825734;78;21088;-77
2021/09/25 01:47:30;;;;;;;1.60;0.95;;;25.30;99.90;;;;;;1828874;76;21079;-78
2021/09/25 01:50:07;;;;;;;2.30;1.33;;;25.30;99.90;;;;;;1839712;78;21146;-78
2021/09/25 01:52:39;;;;;;;2.67;1.40;;;25.30;99.90;;;;;;1839091;77;21622;-78
2021/09/25 01:55:10;;;;;;;2.90;1.20;;;25.30;99.90;;;;;;1826347;78;21091;-78
2021/09/25 01:57:42;;;;;;;2.52;1.22;;;25.30;99.90;;;;;;1830452;78;21573;-79
2021/09/25 02:00:13;;;;;;;2.22;1.50;;;25.30;99.90;;;;;;1832701;78;21622;-79
2021/09/25 02:02:44;;;;;;;2.30;1.37;;;25.30;99.90;;;;;;1826129;77;21844;-79
2021/09/25 02:05:21;;;;;;;2.65;1.75;;;25.30;99.90;;;;;;1855545;77;21906;-77
2021/09/25 02:07:52;;;;;;;3.08;1.90;;;25.20;99.90;;;;;;1844201;77;21168;-77
2021/09/25 02:10:23;;;;;;;1.95;1.30;;;25.30;99.90;;;;;;1851654;77;22092;-76
2021/09/25 02:12:54;;;;;;;3.52;1.52;;;25.20;99.90;;;;;;1833525;77;21147;-78
2021/09/25 02:15:25;;;;;;;4.03;1.95;;;25.20;99.90;;;;;;1816470;78;21214;-77
2021/09/25 02:17:56;;;;;;;4.40;1.67;;;25.20;99.90;;;;;;1827054;78;21158;-77
2021/09/25 02:20:27;;;;;;;3.27;1.42;;;25.20;99.90;;;;;;1811529;78;21577;-76
2021/09/25 02:23:08;;;;;;;2.37;1.35;;;25.20;99.90;;;;;;1855917;76;21095;-77
2021/09/25 02:25:39;;;;;;;3.20;1.20;;;25.20;99.90;;;;;;1851091;76;21637;-77
2021/09/25 02:28:10;;;;;;;4.08;1.45;;;25.20;99.90;;;;;;1851698;77;21090;-77
2021/09/25 02:30:41;;;;;;;3.08;1.47;;;25.20;99.90;;;;;;1819638;77;21725;-77
2021/09/25 02:33:13;;;;;;;3.83;1.22;;;25.20;99.90;;;;;;1849556;76;21107;-77
2021/09/25 02:35:44;;;;;;;2.90;1.40;;;25.20;99.90;;;;;;1852778;77;21701;-77
2021/09/25 02:38:15;;;;;;;2.22;1.25;;;25.10;99.90;;;;;;1786247;79;21672;-76
2021/09/25 02:40:46;;;;;;;2.50;1.60;;;25.10;99.90;;;;;;1803058;78;21092;-77
2021/09/25 02:43:18;;;;;;;4.30;1.57;;;25.00;99.90;;;;;;1811478;77;21081;-76
2021/09/25 02:45:49;;;;;;;2.80;1.50;;;25.10;99.90;;;;;;1770136;79;21253;-76
2021/09/25 02:48:20;;;;;;;1.67;1.07;;;25.10;99.90;;;;;;1739422;81;21267;-76
2021/09/25 02:50:51;;;;;;;1.70;1.30;;;25.10;99.90;;;;;;1768214;80;21150;-76
2021/09/25 02:53:22;;;;;;;1.65;1.30;;;25.20;99.90;;;;;;1801357;78;21093;-78
2021/09/25 02:55:53;;;;;;;2.12;1.10;;;25.10;99.90;;;;;;1805697;78;21185;-75
2021/09/25 02:58:24;;;;;;;3.87;1.30;;;25.20;99.90;;;;;;1763495;80;21173;-79
2021/09/25 03:00:55;;;;;;;2.05;1.30;;;25.20;99.90;;;;;;1806385;78;21106;-78
2021/09/25 03:03:26;;;;;;;1.77;1.15;;;25.20;99.90;;;;;;1811380;78;21234;-78
2021/09/25 03:05:57;;;;;;;2.15;1.42;;;25.20;99.90;;;;;;1740972;82;21183;-79
2021/09/25 03:08:28;;;;;;;2.35;1.47;;;25.20;99.90;;;;;;1815123;79;21192;-79
2021/09/25 03:10:59;;;;;;;2.67;1.40;;;25.20;99.90;;;;;;1793363;79;21563;-79
2021/09/25 03:13:36;;;;;;;1.92;1.32;;;25.20;99.90;;;;;;1741163;81;21186;-78
